Time;durP1;ratioP1;P1;durP2;ratioP2;P2;SDS_P1;SDS_P2;PMS_P1;PMS_P2;Temp;Humidity;BMP_temperature;BMP_pressure;BME280_temperature;BME280_humidity;BME280_pressure;Samples;Min_cycle;Max_cycle;Signal;HPM_P1;HPM_P2
2023/03/20 00:00:52;;;;;;;3.90;3.55;;;;;;;11.97;76.90;100313.31;10386450;28;20075;-73
2023/03/20 00:05:53;;;;;;;4.78;4.38;;;;;;;11.96;77.40;100327.63;10406869;28;20049;-71
2023/03/20 00:10:55;;;;;;;4.43;4.13;;;;;;;11.98;77.64;100341.69;10392533;28;20188;-72
2023/03/20 00:15:56;;;;;;;4.65;4.25;;;;;;;12.00;77.25;100334.41;10389096;28;20473;-72
2023/03/20 00:20:58;;;;;;;6.13;4.72;;;;;;;11.91;77.51;100335.16;10390549;28;20140;-70
2023/03/20 00:25:59;;;;;;;6.07;4.63;;;;;;;11.89;77.21;100347.78;10405496;28;20144;-73
2023/03/20 00:31:01;;;;;;;4.38;3.97;;;;;;;11.90;77.29;100349.47;10397039;28;20112;-72
2023/03/20 00:36:02;;;;;;;4.25;3.85;;;;;;;11.88;77.17;100340.75;10406738;28;20057;-72
2023/03/20 00:41:23;;;;;;;5.32;4.20;;;;;;;11.78;77.41;100337.16;10421727;28;20052;-74
2023/03/20 00:46:25;;;;;;;4.35;3.95;;;;;;;11.87;76.95;100349.72;10429004;28;20061;-71
2023/03/20 00:51:27;;;;;;;5.15;4.13;;;;;;;11.76;77.13;100363.13;10406183;28;20080;-75
2023/03/20 00:56:39;;;;;;;5.32;4.28;;;;;;;11.66;77.74;100355.03;10420413;28;20045;-72
2023/03/20 01:01:40;;;;;;;4.85;4.38;;;;;;;11.62;77.73;100365.13;10421651;28;20144;-67
2023/03/20 01:06:42;;;;;;;4.85;4.22;;;;;;;11.65;77.43;100356.03;10425611;28;20053;-70
2023/03/20 01:11:44;;;;;;;3.70;3.40;;;;;;;11.64;77.40;100360.50;10444671;28;20119;-74
2023/03/20 01:16:46;;;;;;;4.93;4.18;;;;;;;11.53;77.85;100352.56;10413734;28;20144;-76
2023/03/20 01:21:48;;;;;;;5.00;4.47;;;;;;;11.46;78.08;100364.72;10449858;28;20104;-77
2023/03/20 01:26:51;;;;;;;5.78;4.20;;;;;;;11.49;78.33;100367.13;10452526;28;20409;-76
2023/03/20 01:31:53;;;;;;;4.70;4.28;;;;;;;11.47;78.04;100358.41;10446667;28;20052;-77
2023/03/20 01:36:57;;;;;;;4.30;4.00;;;;;;;11.45;78.71;100363.00;10437022;28;20606;-73
2023/03/20 01:41:59;;;;;;;;;;;;;;;11.49;78.17;100357.28;10395402;28;20122;-74
2023/03/20 01:47:03;;;;;;;5.93;4.38;;;;;;;11.34;78.67;100360.38;10397233;28;19948;-72
2023/03/20 01:52:04;;;;;;;5.10;3.85;;;;;;;11.30;78.67;100355.31;10408006;28;20283;-72
2023/03/20 01:57:14;;;;;;;4.40;4.00;;;;;;;11.27;78.87;100370.69;10392854;28;20370;-71
2023/03/20 02:02:22;;;;;;;5.85;4.28;;;;;;;11.25;78.67;100365.47;10416217;28;20051;-75
2023/03/20 02:07:24;;;;;;;4.95;4.50;;;;;;;11.22;78.64;100365.72;10412503;28;20438;-73
2023/03/20 02:12:26;;;;;;;4.70;4.30;;;;;;;11.23;78.87;100366.56;10413264;28;20063;-73
2023/03/20 02:17:27;;;;;;;4.15;3.75;;;;;;;11.10;79.46;100369.41;10394449;28;20049;-69
2023/03/20 02:22:59;;;;;;;4.80;4.40;;;;;;;11.06;79.59;100375.94;10413232;28;20445;-72
2023/03/20 02:28:07;;;;;;;4.82;4.43;;;;;;;11.06;80.09;100374.09;10408510;28;20140;-73
2023/03/20 02:33:14;;;;;;;4.93;4.50;;;;;;;11.05;79.92;100380.44;10397652;28;20075;-72
2023/03/20 02:38:38;;;;;;;4.43;4.05;;;;;;;11.02;80.10;100386.00;10409038;28;20359;-70
2023/03/20 02:43:50;;;;;;;6.38;5.78;;;;;;;10.97;80.64;100385.50;10409225;28;20068;-74
2023/03/20 02:48:55;;;;;;;6.00;5.50;;;;;;;10.87;80.92;100379.22;10410415;28;20053;-75
2023/03/20 02:54:07;;;;;;;6.35;5.75;;;;;;;10.94;80.97;100388.41;10441496;28;20059;-73
2023/03/20 02:59:17;;;;;;;6.25;5.68;;;;;;;10.90;81.35;100387.84;10419950;28;20053;-70
2023/03/20 03:04:25;;;;;;;5.75;5.25;;;;;;;10.90;81.30;100387.84;10409688;28;20129;-75
2023/03/20 03:09:33;;;;;;;6.68;5.95;;;;;;;10.85;81.56;100390.00;10411856;28;20045;-72
2023/03/20 03:14:39;;;;;;;7.28;6.45;;;;;;;10.88;81.33;100397.75;10396612;28;20048;-73
2023/03/20 03:19:46;;;;;;;6.90;6.30;;;;;;;10.82;81.55;100384.91;10408550;28;20041;-74
2023/03/20 03:24:50;;;;;;;6.85;6.25;;;;;;;10.88;81.38;100391.56;10392975;28;20086;-73
2023/03/20 03:30:02;;;;;;;6.70;6.10;;;;;;;10.95;81.20;100390.97;10410010;28;20069;-70
2023/03/20 03:35:05;;;;;;;7.63;6.90;;;;;;;11.01;80.94;100397.63;10411357;28;20130;-73
2023/03/20 03:40:19;;;;;;;7.05;6.35;;;;;;;11.04;80.72;100393.88;10408564;28;20044;-71
2023/03/20 03:45:37;;;;;;;7.97;7.05;;;;;;;11.02;80.97;100395.78;10391061;28;20072;-73
2023/03/20 03:50:48;;;;;;;7.07;6.38;;;;;;;11.00;81.01;100397.75;10408354;28;20046;-71
2023/03/20 03:55:53;;;;;;;8.15;6.88;;;;;;;10.99;81.07;100402.25;10408236;28;20325;-73
2023/03/20 04:00:57;;;;;;;7.97;7.18;;;;;;;11.06;80.52;100408.75;10389456;28;20494;-70
2023/03/20 04:06:01;;;;;;;10.27;8.73;;;;;;;11.05;80.87;100406.19;10391580;28;20415;-69
2023/03/20 04:11:03;;;;;;;7.85;6.47;;;;;;;11.05;81.12;100412.41;10408849;28;20041;-74
2023/03/20 04:16:05;;;;;;;8.25;7.00;;;;;;;11.11;80.64;100416.41;10406892;28;20053;-72
2023/03/20 04:21:08;;;;;;;8.07;6.65;;;;;;;11.09;80.77;100413.00;10416333;28;20573;-69
2023/03/20 04:26:10;;;;;;;7.50;6.80;;;;;;;11.08;81.02;100411.28;10416750;28;20078;-70
2023/03/20 04:31:11;;;;;;;8.80;7.88;;;;;;;11.04;81.40;100423.19;10416083;28;20049;-71
2023/03/20 04:36:13;;;;;;;7.65;6.85;;;;;;;11.02;81.42;100433.97;10400114;28;20142;-71
2023/03/20 04:41:14;;;;;;;8.88;7.97;;;;;;;10.99;81.78;100428.00;10401937;28;20195;-70
2023/03/20 04:46:16;;;;;;;7.97;7.18;;;;;;;11.00;81.82;100440.38;10414070;28;20056;-70
2023/03/20 04:51:18;;;;;;;9.32;7.95;;;;;;;11.03;81.95;100442.78;10414970;28;20357;-69
2023/03/20 04:56:19;;;;;;;9.00;8.13;;;;;;;11.04;81.56;100437.34;10413560;28;20077;-70
2023/03/20 05:01:22;;;;;;;8.65;7.75;;;;;;;11.13;81.42;100451.75;10411800;28;20063;-69
2023/03/20 05:06:23;;;;;;;9.73;7.63;;;;;;;11.23;80.72;100452.72;10413069;28;20214;-71
2023/03/20 05:11:26;;;;;;;9.70;8.73;;;;;;;11.26;81.21;100462.25;10413712;28;20143;-70
2023/03/20 05:16:27;;;;;;;9.70;8.50;;;;;;;11.22;81.30;100459.00;10414458;28;20052;-72
2023/03/20 05:21:29;;;;;;;9.00;8.07;;;;;;;11.26;80.93;100444.47;10414097;28;20532;-71
2023/03/20 05:26:31;;;;;;;10.88;8.60;;;;;;;11.30;80.75;100424.59;10411905;28;20064;-71
2023/03/20 05:31:33;;;;;;;12.75;10.02;;;;;;;11.42;80.69;100433.38;10392093;28;20510;-72
2023/03/20 05:36:34;;;;;;;11.13;9.82;;;;;;;11.42;80.46;100424.56;10407433;28;20322;-73
2023/03/20 05:41:35;;;;;;;10.93;9.77;;;;;;;11.31;81.00;100423.59;10407116;28;20434;-70
2023/03/20 05:46:37;;;;;;;13.13;11.13;;;;;;;11.34;80.81;100419.03;10399694;28;20072;-72
2023/03/20 05:51:39;;;;;;;11.00;9.85;;;;;;;11.32;80.98;100419.16;10410412;28;20153;-71
2023/03/20 05:56:40;;;;;;;12.07;10.23;;;;;;;11.38;80.60;100429.31;10404076;28;20052;-70
2023/03/20 06:01:42;;;;;;;12.10;10.82;;;;;;;11.38;80.83;100436.44;10415327;28;20143;-71
2023/03/20 06:06:43;;;;;;;12.23;10.93;;;;;;;11.23;81.31;100419.84;10414261;28;20059;-72
2023/03/20 06:11:45;;;;;;;14.88;12.80;;;;;;;11.40;81.22;100447.84;10429211;28;20065;-73
2023/03/20 06:16:47;;;;;;;14.73;12.48;;;;;;;11.41;81.00;100444.19;10409313;28;20041;-72
2023/03/20 06:21:49;;;;;;;16.20;12.73;;;;;;;11.57;80.15;100449.97;10450111;28;20057;-74
2023/03/20 06:26:50;;;;;;;17.92;14.55;;;;;;;11.59;80.32;100448.03;10454512;28;20049;-75
2023/03/20 06:31:52;;;;;;;18.20;14.55;;;;;;;11.66;79.82;100454.56;10411648;28;20080;-71
2023/03/20 06:36:53;;;;;;;17.17;14.10;;;;;;;11.71;79.63;100455.97;10410359;28;20500;-70
2023/03/20 06:41:54;;;;;;;22.33;17.33;;;;;;;11.73;79.17;100464.72;10393413;28;20052;-69
2023/03/20 06:46:56;;;;;;;19.48;16.67;;;;;;;11.75;79.12;100462.78;10409761;28;20137;-68
2023/03/20 06:51:58;;;;;;;22.98;18.50;;;;;;;11.79;78.59;100477.56;10402580;28;20136;-72
2023/03/20 06:56:59;;;;;;;26.60;20.15;;;;;;;11.77;77.82;100468.81;10381988;28;20132;-73
2023/03/20 07:02:02;;;;;;;25.05;18.92;;;;;;;11.70;77.38;100471.16;10385293;28;20753;-70
2023/03/20 07:07:04;;;;;;;24.88;19.50;;;;;;;11.64;76.99;100461.81;10405942;28;20622;-70
2023/03/20 07:12:13;;;;;;;24.15;18.95;;;;;;;11.78;77.04;100476.69;10406414;28;20059;-69
2023/03/20 07:17:14;;;;;;;26.02;19.23;;;;;;;11.70;76.95;100478.31;10404451;28;20509;-70
2023/03/20 07:22:35;;;;;;;30.10;22.55;;;;;;;11.60;77.36;100481.69;10386945;28;20048;-71
2023/03/20 07:27:36;;;;;;;29.83;21.60;;;;;;;11.62;77.66;100478.91;10400750;28;20132;-74
2023/03/20 07:32:38;;;;;;;27.02;21.33;;;;;;;11.66;77.51;100481.22;10402854;28;20964;-71
2023/03/20 07:37:40;;;;;;;28.73;21.60;;;;;;;11.73;79.05;100494.06;10403411;28;20125;-72
2023/03/20 07:42:43;;;;;;;27.55;20.48;;;;;;;11.77;78.68;100490.16;10400346;28;20502;-70
2023/03/20 07:47:45;;;;;;;21.83;17.20;;;;;;;11.80;79.60;100497.88;10407170;28;20133;-72
2023/03/20 07:52:48;;;;;;;23.50;18.55;;;;;;;11.67;79.69;100493.56;10381985;28;20072;-72
2023/03/20 07:57:51;;;;;;;25.05;19.65;;;;;;;11.65;79.03;100500.03;10411774;28;20057;-69
2023/03/20 08:02:52;;;;;;;23.13;18.83;;;;;;;11.55;80.04;100505.22;10412494;28;20899;-70
2023/03/20 08:07:54;;;;;;;23.10;18.38;;;;;;;11.59;79.47;100498.69;10412330;28;20063;-69
2023/03/20 08:12:55;;;;;;;24.52;18.77;;;;;;;11.63;79.36;100508.16;10392670;28;20084;-69
2023/03/20 08:17:57;;;;;;;23.08;17.52;;;;;;;11.52;81.37;100510.81;10410404;28;20423;-70
2023/03/20 08:22:59;;;;;;;23.90;17.85;;;;;;;11.46;82.03;100517.47;10407518;28;20411;-70
2023/03/20 08:28:00;;;;;;;22.13;17.95;;;;;;;11.38;82.97;100522.59;10412238;28;20129;-70
2023/03/20 08:33:02;;;;;;;21.50;16.80;;;;;;;11.45;82.49;100520.25;10392992;28;20049;-69
2023/03/20 08:38:03;;;;;;;23.85;19.05;;;;;;;11.43;82.08;100527.56;10409510;28;20041;-68
2023/03/20 08:43:05;;;;;;;25.08;18.42;;;;;;;11.43;81.08;100543.53;10407751;28;20052;-72
2023/03/20 08:48:09;;;;;;;24.95;19.35;;;;;;;11.55;78.52;100521.22;10404375;28;20095;-70
2023/03/20 08:53:10;;;;;;;24.05;19.45;;;;;;;11.72;78.27;100545.69;10407221;28;20057;-73
2023/03/20 08:58:12;;;;;;;28.85;21.40;;;;;;;11.81;77.19;100543.13;10407160;28;20057;-70
2023/03/20 09:03:15;;;;;;;28.25;22.58;;;;;;;11.77;77.23;100546.16;10411813;28;20129;-73
2023/03/20 09:08:16;;;;;;;26.85;20.50;;;;;;;11.79;77.60;100544.22;10404512;28;20419;-72
2023/03/20 09:13:18;;;;;;;28.77;22.60;;;;;;;11.78;77.00;100550.53;10407431;28;20056;-70
2023/03/20 09:18:28;;;;;;;28.30;21.42;;;;;;;11.76;76.94;100550.66;10392328;28;20183;-69
2023/03/20 09:23:30;;;;;;;29.98;22.35;;;;;;;11.88;77.23;100548.81;10407547;28;20067;-67
2023/03/20 09:28:32;;;;;;;29.13;23.20;;;;;;;11.91;77.61;100551.22;10408218;28;20513;-69
2023/03/20 09:33:34;;;;;;;28.25;21.33;;;;;;;12.20;77.63;100550.69;10391306;28;20116;-72
2023/03/20 09:38:36;;;;;;;29.60;22.85;;;;;;;12.72;76.80;100556.16;10409589;28;20140;-68
2023/03/20 09:43:53;;;;;;;30.75;22.23;;;;;;;13.75;72.83;100547.25;10391229;28;20102;-68
2023/03/20 09:49:08;;;;;;;32.20;23.27;;;;;;;14.11;69.79;100531.53;10394170;28;20153;-71
2023/03/20 09:54:39;;;;;;;27.90;21.85;;;;;;;14.06;69.71;100549.81;10448564;28;20067;-71
2023/03/20 09:59:58;;;;;;;31.17;23.07;;;;;;;14.16;69.34;100555.22;10387142;28;20055;-69
2023/03/20 10:05:03;;;;;;;24.45;19.70;;;;;;;14.21;69.42;100552.13;10401969;28;20330;-71
2023/03/20 10:10:06;;;;;;;28.73;21.83;;;;;;;14.46;68.42;100567.63;10405106;28;20048;-70
2023/03/20 10:15:44;;;;;;;22.42;19.10;;;;;;;14.61;66.54;100556.53;10409136;28;20106;-69
2023/03/20 10:21:14;;;;;;;23.10;18.55;;;;;;;15.76;61.77;100559.94;10393290;28;20431;-72
2023/03/20 10:26:20;;;;;;;21.30;17.90;;;;;;;16.01;61.92;100558.44;10381245;28;20048;-70
2023/03/20 10:31:43;;;;;;;23.02;18.02;;;;;;;15.35;62.49;100557.59;10403065;28;20587;-69
2023/03/20 10:37:25;;;;;;;19.80;17.05;;;;;;;15.52;61.96;100543.41;10407456;28;20522;-70
2023/03/20 10:42:38;;;;;;;20.80;16.63;;;;;;;15.97;59.87;100540.91;10404969;28;20060;-71
2023/03/20 10:47:42;;;;;;;17.08;14.02;;;;;;;16.32;58.13;100539.25;10404231;28;20049;-72
2023/03/20 10:52:48;;;;;;;18.48;14.13;;;;;;;17.03;56.12;100518.66;10406397;28;20389;-68
2023/03/20 10:57:56;;;;;;;16.83;12.88;;;;;;;17.35;54.40;100520.66;10401309;28;20128;-72
2023/03/20 11:02:58;;;;;;;13.43;10.88;;;;;;;18.04;49.19;100517.88;10400157;28;20679;-71
2023/03/20 11:08:07;;;;;;;13.88;11.13;;;;;;;18.77;47.32;100512.69;10405317;28;20142;-70
2023/03/20 11:13:39;;;;;;;12.60;10.00;;;;;;;20.56;43.88;100513.84;10411514;28;20045;-72
2023/03/20 11:18:41;;;;;;;9.35;8.38;;;;;;;18.34;46.87;100526.31;10435661;28;20079;-74
2023/03/20 11:23:42;;;;;;;9.70;8.27;;;;;;;16.85;49.96;100522.19;10439436;28;20104;-74
2023/03/20 11:28:51;;;;;;;9.43;8.48;;;;;;;18.30;47.85;100520.44;10412551;28;20131;-70
2023/03/20 11:34:13;;;;;;;9.55;8.57;;;;;;;18.87;46.99;100506.09;10408375;28;20222;-71
2023/03/20 11:39:22;;;;;;;9.98;8.07;;;;;;;18.04;47.43;100492.78;10388272;28;20711;-70
2023/03/20 11:44:29;;;;;;;11.68;9.07;;;;;;;18.30;46.95;100504.28;10387803;28;20139;-69
2023/03/20 11:49:32;;;;;;;9.30;8.40;;;;;;;22.34;38.96;100484.91;10403945;28;20052;-74
2023/03/20 11:54:33;;;;;;;;;;;;;;;23.03;36.88;100488.75;10387812;28;20330;-72
2023/03/20 11:59:36;;;;;;;10.73;8.95;;;;;;;20.33;42.25;100484.09;10405912;28;20312;-75
2023/03/20 12:04:41;;;;;;;10.48;9.45;;;;;;;21.31;41.01;100471.47;10382680;28;20049;-76
2023/03/20 12:09:57;;;;;;;8.68;7.85;;;;;;;20.83;41.30;100459.16;10394667;28;20056;-74
2023/03/20 12:15:14;;;;;;;7.90;6.28;;;;;;;19.85;42.67;100443.81;10410196;28;20105;-74
2023/03/20 12:20:54;;;;;;;6.63;5.78;;;;;;;21.77;39.20;100444.13;10416785;28;20703;-70
2023/03/20 12:26:06;;;;;;;8.68;6.93;;;;;;;19.78;42.56;100440.97;10406609;28;20053;-70
2023/03/20 12:31:22;;;;;;;8.80;7.07;;;;;;;18.19;45.98;100448.00;10375763;28;20053;-73
2023/03/20 12:36:42;;;;;;;6.78;5.97;;;;;;;17.30;48.03;100440.44;10383390;28;20053;-70
2023/03/20 12:42:19;;;;;;;7.82;7.05;;;;;;;16.77;50.87;100428.06;10394766;28;20132;-73
2023/03/20 12:47:26;;;;;;;7.57;6.70;;;;;;;16.25;52.98;100432.41;10388595;28;20049;-75
2023/03/20 12:53:00;;;;;;;9.05;7.35;;;;;;;16.06;53.96;100414.66;10410523;28;20063;-70
2023/03/20 12:58:08;;;;;;;8.53;7.07;;;;;;;16.21;52.71;100420.31;10410243;28;20128;-72
2023/03/20 13:03:28;;;;;;;7.22;5.85;;;;;;;16.48;50.43;100409.59;10413592;28;20395;-71
2023/03/20 13:08:41;;;;;;;5.97;5.25;;;;;;;16.60;49.81;100402.94;10419374;28;20157;-71
2023/03/20 13:14:02;;;;;;;6.15;5.03;;;;;;;16.39;50.66;100384.50;10422959;28;20049;-74
2023/03/20 13:19:37;;;;;;;5.32;3.95;;;;;;;16.42;50.75;100392.25;10462288;28;21420;-74
2023/03/20 13:24:54;;;;;;;6.78;3.97;;;;;;;16.21;48.66;100382.72;10453513;28;20076;-74
2023/03/20 13:30:18;;;;;;;5.70;3.85;;;;;;;15.95;49.47;100388.06;10458686;28;20049;-76
2023/03/20 13:35:27;;;;;;;4.10;3.70;;;;;;;15.58;49.55;100361.34;10430888;28;20046;-73
2023/03/20 13:40:52;;;;;;;13.70;4.03;;;;;;;15.65;49.87;100375.84;10418588;28;20091;-72
2023/03/20 13:46:11;;;;;;;3.72;2.65;;;;;;;15.57;48.80;100384.66;10423994;28;20063;-73
2023/03/20 13:51:38;;;;;;;4.43;2.28;;;;;;;15.47;49.83;100379.38;10414938;28;20289;-72
2023/03/20 13:57:12;;;;;;;3.22;2.10;;;;;;;15.51;48.58;100372.72;10400756;28;20057;-73
2023/03/20 14:02:51;;;;;;;2.15;1.55;;;;;;;15.25;47.92;100369.06;10390512;28;20134;-72
2023/03/20 14:07:56;;;;;;;2.45;2.25;;;;;;;15.20;48.81;100366.84;10414094;28;20053;-74
2023/03/20 14:13:00;;;;;;;4.05;2.40;;;;;;;15.10;48.10;100355.34;10414353;28;20059;-70
2023/03/20 14:18:06;;;;;;;3.80;2.27;;;;;;;15.06;47.98;100351.25;10412672;28;20049;-74
2023/03/20 14:23:22;;;;;;;3.55;1.83;;;;;;;15.15;47.37;100359.25;10396001;28;20106;-75
2023/03/20 14:28:32;;;;;;;3.92;2.33;;;;;;;15.13;46.98;100353.22;10414274;28;20147;-72
2023/03/20 14:33:41;;;;;;;3.63;2.10;;;;;;;15.01;47.14;100359.75;10406941;28;20060;-72
2023/03/20 14:39:08;;;;;;;34.85;7.30;;;;;;;15.03;46.64;100361.31;10394158;28;20773;-71
2023/03/20 14:44:45;;;;;;;3.75;2.22;;;;;;;14.95;45.01;100379.13;10387183;28;20072;-73
2023/03/20 14:49:59;;;;;;;4.35;2.80;;;;;;;14.87;44.42;100371.00;10408395;28;20110;-72
2023/03/20 14:55:16;;;;;;;4.90;2.35;;;;;;;14.73;44.27;100375.84;10390443;28;20466;-69
2023/03/20 15:00:21;;;;;;;4.10;2.60;;;;;;;14.70;44.87;100369.91;10405532;28;20297;-71
2023/03/20 15:05:29;;;;;;;7.00;2.50;;;;;;;14.59;44.74;100373.59;10387560;28;20048;-71
2023/03/20 15:10:35;;;;;;;5.13;2.90;;;;;;;14.56;45.58;100368.53;10434555;28;20395;-72
2023/03/20 15:15:37;;;;;;;4.20;2.60;;;;;;;14.54;44.96;100362.50;10414709;28;20068;-73
2023/03/20 15:20:43;;;;;;;4.78;2.75;;;;;;;14.56;45.49;100363.19;10430853;28;20094;-72
2023/03/20 15:25:46;;;;;;;5.90;2.85;;;;;;;14.62;46.00;100373.34;10436339;28;20064;-72
2023/03/20 15:30:52;;;;;;;3.67;2.37;;;;;;;14.55;45.57;100366.88;10432921;28;20795;-73
2023/03/20 15:35:54;;;;;;;3.17;2.53;;;;;;;14.57;46.21;100360.34;10415531;28;20559;-72
2023/03/20 15:40:56;;;;;;;3.70;2.45;;;;;;;14.40;45.97;100361.16;10411460;28;20049;-73
2023/03/20 15:45:58;;;;;;;3.65;2.15;;;;;;;14.34;45.82;100365.25;10418612;28;20114;-73
2023/03/20 15:51:26;;;;;;;3.72;2.03;;;;;;;14.37;45.49;100362.28;10407127;28;20056;-71
2023/03/20 15:56:28;;;;;;;3.90;2.25;;;;;;;14.10;44.98;100384.47;10382810;28;20055;-71
2023/03/20 16:01:31;;;;;;;2.30;2.10;;;;;;;14.04;45.04;100375.16;10386500;28;20763;-71
2023/03/20 16:06:33;;;;;;;5.27;2.00;;;;;;;14.01;46.26;100374.63;10382425;28;20122;-71
2023/03/20 16:11:39;;;;;;;2.03;1.40;;;;;;;13.97;44.43;100382.06;10407975;28;20060;-71
2023/03/20 16:16:42;;;;;;;2.22;1.17;;;;;;;13.94;43.77;100368.97;10432756;28;20055;-74
2023/03/20 16:21:51;;;;;;;1.67;1.25;;;;;;;13.86;43.21;100379.56;10431567;28;20119;-75
2023/03/20 16:26:54;;;;;;;2.30;1.58;;;;;;;13.78;41.57;100381.09;10406223;28;20123;-71
2023/03/20 16:32:18;;;;;;;2.45;1.73;;;;;;;13.68;41.47;100390.94;10422292;28;20464;-73
2023/03/20 16:37:30;;;;;;;;;;;;;;;13.65;42.43;100393.06;10410833;28;20053;-72
2023/03/20 16:42:32;;;;;;;2.63;1.75;;;;;;;13.66;41.69;100390.25;10428699;28;20054;-74
2023/03/20 16:47:35;;;;;;;2.65;1.67;;;;;;;13.53;41.54;100397.72;10466119;28;20045;-74
2023/03/20 16:52:39;;;;;;;3.30;1.60;;;;;;;13.34;41.26;100394.00;10449667;28;20506;-71
2023/03/20 16:57:40;;;;;;;;;;;;;;;13.34;41.97;100398.50;10418219;28;20473;-71
2023/03/20 17:02:49;;;;;;;3.42;1.35;;;;;;;13.37;42.51;100408.94;10424318;28;19920;-70
2023/03/20 17:08:03;;;;;;;1.80;1.35;;;;;;;13.29;42.35;100396.22;10421399;28;20098;-74
2023/03/20 17:13:06;;;;;;;1.80;1.50;;;;;;;13.23;42.20;100412.81;10421301;28;20055;-68
2023/03/20 17:18:11;;;;;;;3.20;1.23;;;;;;;13.20;41.30;100419.28;10416548;28;20102;-69
2023/03/20 17:23:18;;;;;;;1.98;1.42;;;;;;;13.11;41.49;100428.13;10421339;28;20590;-74
2023/03/20 17:28:26;;;;;;;3.85;1.67;;;;;;;13.03;42.23;100434.13;10418852;28;20052;-73
2023/03/20 17:33:28;;;;;;;2.38;1.45;;;;;;;12.99;42.01;100430.03;10416715;28;20045;-72
2023/03/20 17:38:30;;;;;;;3.15;1.60;;;;;;;12.91;42.77;100429.88;10412774;28;20057;-74
2023/03/20 17:43:32;;;;;;;3.00;1.77;;;;;;;13.01;42.91;100436.06;10418183;28;20068;-72
2023/03/20 17:48:33;;;;;;;3.50;1.63;;;;;;;12.99;43.20;100432.72;10413280;28;20052;-71
2023/03/20 17:53:35;;;;;;;5.25;2.05;;;;;;;12.74;43.24;100436.66;10405543;28;20642;-66
2023/03/20 17:58:38;;;;;;;4.90;1.70;;;;;;;12.80;43.83;100429.97;10405561;28;20553;-69
2023/03/20 18:03:40;;;;;;;4.05;1.95;;;;;;;12.84;43.71;100444.75;10410564;28;20668;-70
2023/03/20 18:08:41;;;;;;;2.63;1.75;;;;;;;12.79;44.37;100446.94;10403205;28;20202;-73
2023/03/20 18:13:43;;;;;;;3.28;2.20;;;;;;;12.80;43.93;100437.97;10404902;28;20583;-72
2023/03/20 18:18:44;;;;;;;4.38;2.20;;;;;;;12.77;44.04;100439.06;10406163;28;20099;-71
2023/03/20 18:23:46;;;;;;;3.35;1.92;;;;;;;12.78;44.42;100447.94;10407360;28;20056;-71
2023/03/20 18:28:49;;;;;;;4.35;2.75;;;;;;;12.75;44.40;100440.22;10407481;28;20049;-72
2023/03/20 18:33:52;;;;;;;2.97;2.05;;;;;;;12.67;45.43;100444.38;10385182;28;20415;-68
2023/03/20 18:38:54;;;;;;;1.92;1.67;;;;;;;12.47;45.56;100435.41;10401622;28;20053;-70
2023/03/20 18:43:55;;;;;;;2.45;1.73;;;;;;;12.57;45.77;100442.66;10405851;28;20047;-69
2023/03/20 18:48:57;;;;;;;3.67;2.25;;;;;;;12.52;46.38;100440.34;10385308;28;20052;-69
2023/03/20 18:53:58;;;;;;;4.80;1.75;;;;;;;12.48;46.92;100441.59;10405313;28;20056;-72
2023/03/20 18:59:00;;;;;;;4.05;1.92;;;;;;;12.34;47.44;100424.94;10405259;28;20727;-69
2023/03/20 19:04:01;;;;;;;3.67;1.98;;;;;;;12.35;47.99;100431.94;10403761;28;20487;-70
2023/03/20 19:09:04;;;;;;;4.10;1.95;;;;;;;12.36;48.08;100446.16;10401899;28;20498;-74
2023/03/20 19:14:05;;;;;;;4.50;2.22;;;;;;;12.31;48.28;100437.69;10405572;28;20049;-70
2023/03/20 19:19:09;;;;;;;3.38;1.77;;;;;;;12.29;48.87;100451.16;10409139;28;20871;-72
2023/03/20 19:24:11;;;;;;;5.03;2.53;;;;;;;12.40;48.87;100449.41;10408109;28;20059;-74
2023/03/20 19:29:13;;;;;;;3.10;1.90;;;;;;;12.40;48.50;100438.72;10404255;28;20049;-74
2023/03/20 19:34:14;;;;;;;3.88;2.40;;;;;;;12.45;48.68;100444.53;10409276;28;20084;-70
2023/03/20 19:39:36;;;;;;;4.25;2.17;;;;;;;12.46;48.43;100438.19;10389590;28;20048;-72
2023/03/20 19:44:37;;;;;;;2.67;2.17;;;;;;;12.46;48.65;100440.88;10399999;28;20063;-72
2023/03/20 19:49:39;;;;;;;4.75;3.17;;;;;;;12.44;49.04;100448.19;10406857;28;20480;-72
2023/03/20 19:54:42;;;;;;;3.42;2.17;;;;;;;12.46;48.87;100452.41;10409131;28;20057;-71
2023/03/20 20:00:00;;;;;;;4.70;2.53;;;;;;;12.41;49.30;100440.44;10396636;28;20060;-71
2023/03/20 20:05:27;;;;;;;5.47;2.20;;;;;;;12.46;49.05;100451.53;10402604;28;20063;-73
2023/03/20 20:10:37;;;;;;;6.25;2.40;;;;;;;12.44;48.80;100438.31;10443850;28;20074;-73
2023/03/20 20:15:39;;;;;;;4.30;2.40;;;;;;;12.38;48.97;100439.72;10450335;28;20136;-72
2023/03/20 20:20:41;;;;;;;5.32;3.20;;;;;;;12.30;49.50;100444.84;10452374;28;20068;-71
2023/03/20 20:26:03;;;;;;;5.93;2.72;;;;;;;12.26;49.82;100440.75;10424002;28;20055;-70
2023/03/20 20:31:05;;;;;;;3.45;2.55;;;;;;;12.20;50.36;100436.78;10409846;28;20053;-71
2023/03/20 20:36:11;;;;;;;5.22;2.60;;;;;;;12.23;51.72;100433.00;10403420;28;21025;-70
2023/03/20 20:41:32;;;;;;;3.40;2.38;;;;;;;12.34;50.97;100448.97;10409962;28;20041;-71
2023/03/20 20:46:34;;;;;;;4.25;2.55;;;;;;;12.28;51.20;100443.28;10409088;28;20183;-74
2023/03/20 20:51:35;;;;;;;6.50;3.40;;;;;;;12.40;51.03;100441.41;10409553;28;20052;-72
2023/03/20 20:56:36;;;;;;;4.90;2.15;;;;;;;12.42;50.80;100450.97;10408426;28;20045;-70
2023/03/20 21:01:38;;;;;;;5.95;2.83;;;;;;;12.25;50.40;100425.72;10411635;28;20696;-74
2023/03/20 21:06:39;;;;;;;4.93;2.35;;;;;;;12.26;50.88;100446.06;10414847;28;20144;-69
2023/03/20 21:12:01;;;;;;;4.22;1.88;;;;;;;12.19;51.21;100451.09;10412139;28;20048;-69
2023/03/20 21:17:04;;;;;;;3.92;2.33;;;;;;;12.19;51.19;100458.28;10432737;28;20735;-72
2023/03/20 21:22:09;;;;;;;3.78;1.90;;;;;;;12.20;51.78;100452.81;10426108;28;20053;-72
2023/03/20 21:27:12;;;;;;;;;;;;;;;12.25;51.74;100451.53;10414310;28;20049;-70
2023/03/20 21:32:17;;;;;;;4.10;2.10;;;;;;;12.21;51.46;100453.63;10392274;28;19928;-70
2023/03/20 21:37:19;;;;;;;4.53;2.33;;;;;;;12.14;51.82;100428.44;10411541;28;20059;-70
2023/03/20 21:42:41;;;;;;;4.30;2.25;;;;;;;12.14;51.88;100447.13;10407031;28;20053;-73
2023/03/20 21:47:43;;;;;;;3.03;1.90;;;;;;;12.15;51.91;100447.00;10404800;28;20444;-70
2023/03/20 21:53:06;;;;;;;5.05;1.48;;;;;;;12.13;52.21;100448.94;10410514;28;20048;-71
2023/03/20 21:58:27;;;;;;;4.30;1.65;;;;;;;11.97;52.47;100452.03;10414352;28;20247;-70
2023/03/20 22:03:48;;;;;;;3.35;1.98;;;;;;;11.95;52.64;100448.66;10413194;28;20424;-70
2023/03/20 22:09:10;;;;;;;5.22;1.95;;;;;;;12.02;52.76;100443.66;10409910;28;20110;-69
2023/03/20 22:14:31;;;;;;;5.43;1.88;;;;;;;12.08;52.71;100434.28;10408473;28;20116;-70
2023/03/20 22:19:53;;;;;;;5.85;1.92;;;;;;;12.11;52.68;100436.72;10409723;28;20061;-70
2023/03/20 22:25:14;;;;;;;2.92;1.90;;;;;;;12.05;52.95;100431.88;10406152;28;20084;-69
2023/03/20 22:30:36;;;;;;;2.78;1.70;;;;;;;12.00;53.29;100430.44;10393259;28;20262;-69
2023/03/20 22:35:57;;;;;;;6.55;2.17;;;;;;;12.00;53.35;100429.59;10409925;28;20056;-70
2023/03/20 22:41:20;;;;;;;7.50;2.67;;;;;;;11.98;53.53;100421.72;10392197;28;20056;-70
2023/03/20 22:46:44;;;;;;;3.08;2.30;;;;;;;12.01;53.33;100423.31;10408173;28;20419;-68
2023/03/20 22:51:47;;;;;;;4.30;1.95;;;;;;;11.95;53.66;100416.66;10410118;28;20041;-71
2023/03/20 22:57:09;;;;;;;5.32;2.05;;;;;;;11.96;53.93;100412.16;10407051;28;20049;-72
2023/03/20 23:02:10;;;;;;;5.25;2.45;;;;;;;11.95;53.93;100416.66;10408489;28;20110;-71
2023/03/20 23:07:12;;;;;;;4.15;2.20;;;;;;;11.94;53.81;100411.44;10408240;28;20103;-69
2023/03/20 23:12:13;;;;;;;4.53;1.83;;;;;;;11.84;54.00;100403.31;10409089;28;20124;-67
2023/03/20 23:17:15;;;;;;;5.38;1.85;;;;;;;11.94;54.26;100412.28;10409192;28;20423;-69
2023/03/20 23:22:16;;;;;;;4.70;2.33;;;;;;;11.99;54.67;100415.44;10408244;28;20714;-72
2023/03/20 23:27:19;;;;;;;6.63;3.67;;;;;;;12.00;54.41;100414.44;10405227;28;20726;-71